Time;durP1;ratioP1;P1;durP2;ratioP2;P2;SDS_P1;SDS_P2;PMS_P1;PMS_P2;Temp;Humidity;BMP_temperature;BMP_pressure;BME280_temperature;BME280_humidity;BME280_pressure;Samples;Min_cycle;Max_cycle;Signal;HPM_P1;HPM_P2
2022/08/31 00:05:40;;;;;;;;;;;;;;;23.78;82.29;97001.77;595478;238;65637;-65
2022/08/31 00:08:08;;;;;;;;;;;;;;;23.78;82.37;97001.77;595550;238;65312;-65
2022/08/31 00:10:39;;;;;;;;;;;;;;;23.77;82.20;97000.19;595486;238;62753;-65
2022/08/31 00:13:06;;;;;;;;;;;;;;;23.78;82.21;97009.82;595485;237;65372;-65
2022/08/31 00:15:36;;;;;;;;;;;;;;;23.78;82.14;97004.45;595490;238;63368;-65
2022/08/31 00:18:04;;;;;;;;;;;;;;;23.79;82.12;97014.09;595501;238;63014;-65
2022/08/31 00:20:33;;;;;;;;;;;;;;;23.78;82.25;97015.98;595471;236;65891;-66
2022/08/31 00:23:03;;;;;;;;;;;;;;;23.78;82.38;97004.45;599306;237;64994;-65
2022/08/31 00:25:32;;;;;;;;;;;;;;;23.78;82.34;97005.25;599432;237;63920;-66
2022/08/31 00:28:00;;;;;;;;;;;;;;;23.79;82.44;97003.36;599364;237;63300;-66
2022/08/31 00:30:29;;;;;;;;;;;;;;;23.78;82.40;97004.45;599407;237;63049;-66
2022/08/31 00:32:58;;;;;;;;;;;;;;;23.79;82.59;97006.04;599362;234;65764;-66
2022/08/31 00:35:27;;;;;;;;;;;;;;;23.78;82.58;96997.20;599412;236;63312;-66
2022/08/31 00:37:56;;;;;;;;;;;;;;;23.78;82.72;96993.72;599353;237;65263;-66
2022/08/31 00:40:24;;;;;;;;;;;;;;;23.79;82.67;96998.81;599408;237;65216;-66
2022/08/31 00:42:53;;;;;;;;;;;;;;;23.78;82.75;96986.46;599362;237;65671;-66
2022/08/31 00:45:21;;;;;;;;;;;;;;;23.78;82.77;96989.15;599374;235;65343;-66
2022/08/31 00:47:49;;;;;;;;;;;;;;;23.79;82.82;96979.20;599401;237;65000;-66
2022/08/31 00:50:19;;;;;;;;;;;;;;;23.79;82.77;96984.57;599352;234;66730;-66
2022/08/31 00:52:48;;;;;;;;;;;;;;;23.78;82.83;96978.41;599408;237;65226;-66
2022/08/31 00:55:18;;;;;;;;;;;;;;;23.79;82.65;96981.89;599344;237;63792;-66
2022/08/31 00:57:47;;;;;;;;;;;;;;;23.79;82.66;96984.57;599425;237;63100;-66
2022/08/31 01:00:17;;;;;;;;;;;;;;;23.78;82.64;96980.30;599361;237;62963;-66
2022/08/31 01:02:46;;;;;;;;;;;;;;;23.79;82.57;96979.20;599423;237;64790;-66
2022/08/31 01:05:14;;;;;;;;;;;;;;;23.78;82.49;96978.41;599397;237;65512;-66
2022/08/31 01:07:46;;;;;;;;;;;;;;;23.79;82.46;96976.52;599323;237;65709;-66
2022/08/31 01:10:16;;;;;;;;;;;;;;;23.78;82.27;96972.25;599406;237;63238;-66
2022/08/31 01:12:45;;;;;;;;;;;;;;;23.78;82.12;96981.09;599376;237;63194;-66
2022/08/31 01:15:14;;;;;;;;;;;;;;;23.79;82.08;96979.20;599377;237;63125;-65
2022/08/31 01:17:43;;;;;;;;;;;;;;;23.80;81.92;96978.14;599359;235;65132;-66
2022/08/31 01:20:16;;;;;;;;;;;;;;;23.77;81.86;96976.83;595611;237;63169;-66
2022/08/31 01:23:03;;;;;;;;;;;;;;;23.78;81.90;96972.25;599290;236;62637;-65
2022/08/31 01:25:32;;;;;;;;;;;;;;;23.79;81.89;96971.16;599353;237;65089;-65
2022/08/31 01:28:01;;;;;;;;;;;;;;;23.79;81.85;96971.16;599426;237;62936;-65
2022/08/31 01:30:31;;;;;;;;;;;;;;;23.78;81.87;96973.05;599358;237;63279;-66
2022/08/31 01:32:59;;;;;;;;;;;;;;;23.78;81.76;96978.41;599393;237;62661;-65
2022/08/31 01:35:27;;;;;;;;;;;;;;;23.78;81.69;96973.05;599343;237;63478;-66
2022/08/31 01:37:56;;;;;;;;;;;;;;;23.79;81.63;96976.52;599400;237;65739;-65
2022/08/31 01:40:29;;;;;;;;;;;;;;;23.78;81.63;96965.00;599364;237;65072;-66
2022/08/31 01:42:57;;;;;;;;;;;;;;;23.79;81.84;96979.20;599254;236;65573;-65
2022/08/31 01:45:25;;;;;;;;;;;;;;;23.78;81.85;96973.05;599373;237;63072;-65
2022/08/31 01:47:53;;;;;;;;;;;;;;;23.79;81.82;96976.52;599445;234;65105;-65
2022/08/31 01:50:21;;;;;;;;;;;;;;;23.78;81.79;96972.25;599393;237;64721;-65
2022/08/31 01:52:50;;;;;;;;;;;;;;;23.78;81.79;96972.25;599432;237;64982;-65
2022/08/31 01:55:19;;;;;;;;;;;;;;;23.78;81.81;96964.20;599451;237;65047;-65
2022/08/31 01:57:48;;;;;;;;;;;;;;;23.79;81.89;96976.52;599373;237;62970;-65
2022/08/31 02:00:31;;;;;;;;;;;;;;;23.78;81.90;96964.20;599208;234;45094;-65
2022/08/31 02:03:00;;;;;;;;;;;;;;;23.77;82.01;96971.46;599397;237;64841;-66
2022/08/31 02:05:31;;;;;;;;;;;;;;;23.78;82.07;96969.57;599441;234;64883;-66
2022/08/31 02:08:01;;;;;;;;;;;;;;;23.78;82.15;96973.05;599426;237;64985;-66
2022/08/31 02:10:30;;;;;;;;;;;;;;;23.77;82.17;96976.03;599475;237;65167;-66
2022/08/31 02:12:58;;;;;;;;;;;;;;;23.77;82.17;96970.67;599378;237;63136;-66
2022/08/31 02:15:33;;;;;;;;;;;;;;;23.77;82.10;96966.09;599325;234;45011;-66
2022/08/31 02:18:01;;;;;;;;;;;;;;;23.78;82.18;96972.25;599450;237;65118;-66
2022/08/31 02:20:30;;;;;;;;;;;;;;;23.77;82.08;96967.98;599393;234;63044;-66
2022/08/31 02:23:02;;;;;;;;;;;;;;;23.77;82.10;96966.09;595580;235;65613;-66
2022/08/31 02:25:28;;;;;;;;;;;;;;;23.77;82.13;96965.30;595481;237;66954;-66
2022/08/31 02:27:58;;;;;;;;;;;;;;;23.77;82.18;96962.62;595497;236;65641;-66
2022/08/31 02:30:26;;;;;;;;;;;;;;;23.77;82.16;96960.73;595505;238;65566;-66
2022/08/31 02:32:55;;;;;;;;;;;;;;;23.77;82.22;96965.30;595546;238;64695;-68
2022/08/31 02:35:23;;;;;;;;;;;;;;;23.77;82.26;96963.41;595502;238;65548;-69
2022/08/31 02:37:51;;;;;;;;;;;;;;;23.77;82.20;96966.09;595509;238;63307;-69
2022/08/31 02:40:20;;;;;;;;;;;;;;;23.78;82.24;96966.89;595546;236;65057;-69
2022/08/31 02:42:48;;;;;;;;;;;;;;;23.77;82.27;96960.73;595475;238;65198;-69
2022/08/31 02:45:17;;;;;;;;;;;;;;;23.77;82.26;96967.98;595554;238;63141;-69
2022/08/31 02:47:45;;;;;;;;;;;;;;;23.77;82.18;96973.36;595481;236;64896;-69
2022/08/31 02:50:17;;;;;;;;;;;;;;;23.76;82.12;96969.05;595477;237;43028;-69
2022/08/31 02:52:46;;;;;;;;;;;;;;;23.76;82.18;96972.53;595482;238;65295;-69
2022/08/31 02:55:16;;;;;;;;;;;;;;;23.77;82.15;96978.72;595520;238;65042;-67
2022/08/31 02:57:44;;;;;;;;;;;;;;;23.77;82.15;96971.46;595505;238;65783;-66
2022/08/31 03:00:13;;;;;;;;;;;;;;;23.76;82.18;96967.16;595564;238;64973;-67
2022/08/31 03:02:42;;;;;;;;;;;;;;;23.76;82.24;96975.22;595377;238;67719;-67
2022/08/31 03:05:11;;;;;;;;;;;;;;;23.77;82.19;96967.98;595394;238;64976;-67
2022/08/31 03:07:41;;;;;;;;;;;;;;;23.76;82.10;96963.69;595394;236;67068;-67
2022/08/31 03:10:12;;;;;;;;;;;;;;;23.77;82.16;96970.67;593146;237;64136;-67
2022/08/31 03:12:41;;;;;;;;;;;;;;;23.76;82.12;96963.69;595398;238;65050;-67
2022/08/31 03:15:10;;;;;;;;;;;;;;;23.77;82.17;96967.98;593126;238;64917;-67
2022/08/31 03:17:39;;;;;;;;;;;;;;;23.77;82.04;96970.67;595396;236;65077;-67
2022/08/31 03:20:09;;;;;;;;;;;;;;;23.76;82.08;96969.84;595371;236;45719;-67
2022/08/31 03:22:38;;;;;;;;;;;;;;;23.76;82.14;96963.69;598620;237;64948;-66
2022/08/31 03:25:07;;;;;;;;;;;;;;;23.76;82.18;96969.84;599239;237;65083;-67
2022/08/31 03:27:36;;;;;;;;;;;;;;;23.76;82.20;96969.05;599250;237;65069;-67
2022/08/31 03:30:09;;;;;;;;;;;;;;;23.76;82.20;96969.05;599310;237;64769;-66
2022/08/31 03:32:40;;;;;;;;;;;;;;;23.76;82.16;96974.42;595455;237;64435;-67
2022/08/31 03:35:08;;;;;;;;;;;;;;;23.76;82.19;96969.05;599275;234;67156;-65
2022/08/31 03:37:37;;;;;;;;;;;;;;;23.76;82.22;96975.22;599210;237;67088;-65
2022/08/31 03:40:07;;;;;;;;;;;;;;;23.76;82.40;96974.42;599289;237;64908;-64
2022/08/31 03:42:35;;;;;;;;;;;;;;;23.75;82.46;96980.89;599240;237;67285;-64
2022/08/31 03:45:03;;;;;;;;;;;;;;;23.75;82.51;96970.16;599264;237;66862;-64
2022/08/31 03:47:32;;;;;;;;;;;;;;;23.76;82.56;96971.73;599249;234;65504;-64
2022/08/31 03:50:02;;;;;;;;;;;;;;;23.75;82.59;96976.31;599235;237;67045;-65
2022/08/31 03:52:33;;;;;;;;;;;;;;;23.75;82.61;96978.20;599139;236;45901;-66
2022/08/31 03:55:02;;;;;;;;;;;;;;;23.74;82.63;96977.41;599249;236;43734;-66
2022/08/31 03:57:30;;;;;;;;;;;;;;;23.75;82.62;96983.57;599260;235;64732;-65
2022/08/31 03:59:59;;;;;;;;;;;;;;;23.75;82.63;96980.89;599249;237;67125;-66
2022/08/31 04:02:42;;;;;;;;;;;;;;;23.75;82.64;96986.25;599384;237;37682;-65
2022/08/31 04:05:30;;;;;;;;;;;;;;;23.75;82.56;96980.89;599341;237;37993;-65
2022/08/31 04:08:17;;;;;;;;;;;;;;;23.74;82.44;96993.51;599349;237;38751;-65
2022/08/31 04:10:48;;;;;;;;;;;;;;;23.74;82.40;96992.72;598848;235;44642;-65
2022/08/31 04:13:23;;;;;;;;;;;;;;;23.73;82.35;96991.90;599287;237;50354;-65
2022/08/31 04:16:13;;;;;;;;;;;;;;;23.74;82.32;96990.03;587253;241;49129;-65
2022/08/31 04:18:52;;;;;;;;;;;;;;;23.74;82.32;96995.41;587259;239;43964;-65
2022/08/31 04:21:24;;;;;;;;;;;;;;;23.74;82.31;96992.72;592500;236;65126;-65
2022/08/31 04:23:53;;;;;;;;;;;;;;;23.73;82.26;96997.27;599250;237;67166;-65
2022/08/31 04:26:23;;;;;;;;;;;;;;;23.74;82.25;96998.09;599257;237;63014;-67
2022/08/31 04:28:52;;;;;;;;;;;;;;;23.74;82.18;97012.30;599256;234;67270;-67
2022/08/31 04:31:22;;;;;;;;;;;;;;;23.74;82.13;97006.14;599247;237;65084;-66
2022/08/31 04:33:50;;;;;;;;;;;;;;;23.74;82.14;97006.14;599297;237;65176;-66
2022/08/31 04:36:20;;;;;;;;;;;;;;;23.74;82.22;97012.30;599231;237;67303;-66
2022/08/31 04:38:50;;;;;;;;;;;;;;;23.74;82.18;97009.61;599298;234;64479;-66
2022/08/31 04:41:20;;;;;;;;;;;;;;;23.73;82.25;97005.31;599219;237;62943;-66
2022/08/31 04:43:50;;;;;;;;;;;;;;;23.73;82.26;97005.31;599289;234;67261;-67
2022/08/31 04:46:18;;;;;;;;;;;;;;;23.73;82.30;96999.95;599268;237;66902;-66
2022/08/31 04:48:47;;;;;;;;;;;;;;;23.73;82.31;97005.31;599240;237;65043;-66
2022/08/31 04:51:20;;;;;;;;;;;;;;;23.73;82.37;97007.20;599281;237;67319;-66
2022/08/31 04:53:49;;;;;;;;;;;;;;;23.73;82.34;97010.67;599172;234;67426;-66
2022/08/31 04:56:19;;;;;;;;;;;;;;;23.74;82.31;97006.92;599254;237;65045;-66
2022/08/31 04:58:48;;;;;;;;;;;;;;;23.73;82.31;97004.52;599164;237;67045;-66
2022/08/31 05:01:19;;;;;;;;;;;;;;;23.73;82.34;96999.16;599243;234;65039;-66
2022/08/31 05:04:05;;;;;;;;;;;;;;;23.73;82.40;97001.84;599328;234;37466;-66
2022/08/31 05:06:35;;;;;;;;;;;;;;;23.73;82.35;96999.95;599284;237;68398;-66
2022/08/31 05:09:08;;;;;;;;;;;;;;;23.73;82.35;97007.20;599229;234;67000;-66
2022/08/31 05:11:39;;;;;;;;;;;;;;;23.72;82.37;97001.05;599321;234;42477;-65
2022/08/31 05:14:08;;;;;;;;;;;;;;;23.72;82.37;97001.05;599263;237;67031;-66
2022/08/31 05:16:39;;;;;;;;;;;;;;;23.73;82.40;97007.20;599228;235;45785;-66
2022/08/31 05:19:08;;;;;;;;;;;;;;;23.72;82.41;97006.41;599247;237;63060;-66
2022/08/31 05:21:39;;;;;;;;;;;;;;;23.72;82.44;97002.94;599167;237;65394;-66
2022/08/31 05:24:08;;;;;;;;;;;;;;;23.72;82.45;97002.94;599271;237;67065;-66
2022/08/31 05:26:39;;;;;;;;;;;;;;;23.72;82.51;97001.05;599243;236;47195;-66
2022/08/31 05:29:08;;;;;;;;;;;;;;;23.72;82.56;96994.88;599219;234;67845;-66
2022/08/31 05:31:42;;;;;;;;;;;;;;;23.72;82.56;96989.52;599096;236;48383;-66
2022/08/31 05:34:13;;;;;;;;;;;;;;;23.72;82.57;96994.88;599217;235;64857;-66
2022/08/31 05:36:42;;;;;;;;;;;;;;;23.72;82.57;96992.20;599284;237;67384;-66
2022/08/31 05:39:11;;;;;;;;;;;;;;;23.72;82.59;96986.84;599143;234;64947;-66
2022/08/31 05:41:41;;;;;;;;;;;;;;;23.71;82.59;96983.36;599226;234;62967;-66
2022/08/31 05:44:10;;;;;;;;;;;;;;;23.72;82.60;96981.47;598467;237;67232;-66
2022/08/31 05:46:39;;;;;;;;;;;;;;;23.71;82.60;96975.31;599038;234;67050;-65
2022/08/31 05:49:08;;;;;;;;;;;;;;;23.72;82.60;96976.11;599243;237;63149;-66
2022/08/31 05:51:37;;;;;;;;;;;;;;;23.71;82.52;96980.67;599239;237;65101;-66
2022/08/31 05:54:05;;;;;;;;;;;;;;;23.72;82.54;96976.89;599226;235;64834;-66
2022/08/31 05:56:34;;;;;;;;;;;;;;;23.70;82.50;96982.51;599124;237;65022;-65
2022/08/31 05:59:02;;;;;;;;;;;;;;;23.72;82.54;96981.47;599220;237;67203;-69
2022/08/31 06:01:31;;;;;;;;;;;;;;;23.71;82.52;96983.36;598700;234;64533;-65
2022/08/31 06:04:05;;;;;;;;;;;;;;;23.72;82.39;96976.11;598940;236;42367;-67
2022/08/31 06:06:33;;;;;;;;;;;;;;;23.72;82.49;96978.78;599201;237;66983;-67
2022/08/31 06:09:00;;;;;;;;;;;;;;;23.71;82.46;96969.95;599063;237;67025;-66
2022/08/31 06:11:29;;;;;;;;;;;;;;;23.70;82.48;96966.41;599186;237;65016;-67
2022/08/31 06:13:58;;;;;;;;;;;;;;;23.70;82.37;96963.73;599272;237;64735;-67
2022/08/31 06:16:26;;;;;;;;;;;;;;;23.70;81.99;96966.41;599041;237;66807;-67
2022/08/31 06:18:55;;;;;;;;;;;;;;;23.69;81.41;96964.83;599132;237;62750;-66
2022/08/31 06:21:24;;;;;;;;;;;;;;;23.72;80.78;96962.69;599065;235;66883;-66
2022/08/31 06:23:52;;;;;;;;;;;;;;;23.72;81.12;96951.95;598977;237;64555;-67
2022/08/31 06:26:22;;;;;;;;;;;;;;;23.73;81.47;96959.70;599240;237;65684;-67
2022/08/31 06:28:51;;;;;;;;;;;;;;;23.73;81.99;96951.65;599119;237;64750;-67
2022/08/31 06:31:22;;;;;;;;;;;;;;;23.74;82.26;96955.16;599078;237;66941;-67
2022/08/31 06:33:51;;;;;;;;;;;;;;;23.74;82.42;96949.78;599059;237;65087;-65
2022/08/31 06:36:22;;;;;;;;;;;;;;;23.74;78.78;96957.84;591536;236;48350;-63
2022/08/31 06:38:58;;;;;;;;;;;;;;;23.76;77.91;96950.27;593152;236;46755;-66
2022/08/31 06:41:40;;;;;;;;;;;;;;;23.77;78.62;96962.62;599036;236;44026;-68
2022/08/31 06:44:26;;;;;;;;;;;;;;;23.78;79.50;96953.47;599327;237;41650;-68
2022/08/31 06:46:56;;;;;;;;;;;;;;;23.77;80.78;96955.36;598991;236;44006;-69
2022/08/31 06:49:25;;;;;;;;;;;;;;;23.78;81.64;96959.63;599273;236;43057;-69
2022/08/31 06:51:56;;;;;;;;;;;;;;;23.78;82.15;96961.52;599122;236;67238;-69
2022/08/31 06:54:24;;;;;;;;;;;;;;;23.78;82.49;96956.16;599230;237;67620;-71
2022/08/31 06:57:05;;;;;;;;;;;;;;;23.78;82.60;96956.16;598715;237;42384;-64
2022/08/31 06:59:35;;;;;;;;;;;;;;;23.77;82.68;96943.84;598576;237;47847;-67
2022/08/31 07:02:10;;;;;;;;;;;;;;;23.75;79.50;96954.84;598996;236;44307;-68
2022/08/31 07:04:38;;;;;;;;;;;;;;;23.79;82.42;96952.37;599189;237;62511;-68
2022/08/31 07:07:07;;;;;;;;;;;;;;;23.78;82.86;96942.73;599192;237;66863;-68
2022/08/31 07:09:35;;;;;;;;;;;;;;;23.78;82.98;96945.42;599256;237;67034;-68
2022/08/31 07:12:04;;;;;;;;;;;;;;;23.78;82.97;96950.78;599227;237;63023;-68
2022/08/31 07:14:31;;;;;;;;;;;;;;;23.79;83.03;96947.00;599206;237;65018;-68
2022/08/31 07:17:03;;;;;;;;;;;;;;;23.79;83.06;96944.32;599165;237;67149;-64
2022/08/31 07:19:32;;;;;;;;;;;;;;;23.78;83.03;96943.53;599072;237;65662;-67
2022/08/31 07:22:03;;;;;;;;;;;;;;;23.80;83.20;96948.62;599197;235;43330;-68
2022/08/31 07:24:33;;;;;;;;;;;;;;;23.79;83.25;96942.46;598893;237;67731;-67
2022/08/31 07:27:08;;;;;;;;;;;;;;;23.80;83.12;96945.94;598791;234;65075;-67
2022/08/31 07:29:46;;;;;;;;;;;;;;;23.80;83.22;96945.94;595641;237;46895;-65
2022/08/31 07:32:16;;;;;;;;;;;;;;;23.81;80.40;96947.52;598880;237;64484;-65
2022/08/31 07:34:44;;;;;;;;;;;;;;;23.82;83.00;96938.41;599169;237;65735;-65
2022/08/31 07:42:55;;;;;;;;;;;;;;;23.79;83.08;96934.41;603575;235;65747;-64
2022/08/31 07:45:24;;;;;;;;;;;;;;;23.80;82.92;96935.20;603658;235;67604;-59
2022/08/31 07:47:53;;;;;;;;;;;;;;;23.79;80.63;96929.05;603426;235;64941;-60
2022/08/31 07:50:25;;;;;;;;;;;;;;;23.84;82.25;96930.83;603629;235;42868;-63
2022/08/31 07:53:10;;;;;;;;;;;;;;;23.86;82.51;96931.34;603708;235;41915;-64
2022/08/31 07:55:44;;;;;;;;;;;;;;;23.87;82.50;96924.88;598580;235;46778;-65
2022/08/31 07:58:16;;;;;;;;;;;;;;;23.87;82.52;96917.65;602688;235;44639;-65
2022/08/31 08:00:42;;;;;;;;;;;;;;;23.86;79.79;96912.56;603487;235;67922;-67
2022/08/31 08:03:11;;;;;;;;;;;;;;;23.86;82.32;96921.41;603492;235;64998;-66
2022/08/31 08:05:50;;;;;;;;;;;;;;;23.84;82.75;96917.41;602678;235;46314;-67
2022/08/31 08:08:35;;;;;;;;;;;;;;;23.84;82.69;96920.09;603457;235;46742;-67
2022/08/31 08:11:07;;;;;;;;;;;;;;;23.83;82.61;96918.52;603322;235;49339;-67
2022/08/31 08:13:39;;;;;;;;;;;;;;;23.83;82.55;96913.15;603315;235;44597;-67
2022/08/31 08:16:09;;;;;;;;;;;;;;;23.82;82.55;96914.25;603117;235;49415;-68
2022/08/31 08:18:51;;;;;;;;;;;;;;;23.83;82.17;96918.52;598391;235;49137;-64
2022/08/31 08:21:20;;;;;;;;;;;;;;;23.84;82.43;96917.41;602352;235;42595;-63
2022/08/31 08:23:50;;;;;;;;;;;;;;;23.83;82.76;96918.52;599675;236;67275;-64
2022/08/31 08:26:36;;;;;;;;;;;;;;;23.83;82.85;96916.63;599924;236;42789;-66
2022/08/31 08:29:06;;;;;;;;;;;;;;;23.82;82.79;96920.41;599675;236;43961;-66
2022/08/31 08:31:35;;;;;;;;;;;;;;;23.82;82.89;96914.25;599727;235;44199;-64
2022/08/31 08:34:03;;;;;;;;;;;;;;;23.82;83.03;96927.66;599848;236;66832;-63
2022/08/31 08:36:39;;;;;;;;;;;;;;;23.82;82.87;96928.45;599750;236;65820;-64
2022/08/31 08:39:06;;;;;;;;;;;;;;;23.83;82.72;96915.83;599668;235;68162;-64
2022/08/31 08:41:35;;;;;;;;;;;;;;;23.82;82.55;96916.94;599810;236;67382;-64
2022/08/31 08:44:04;;;;;;;;;;;;;;;23.82;81.34;96903.52;599754;236;65767;-64
2022/08/31 08:46:38;;;;;;;;;;;;;;;23.84;81.83;96906.68;599772;236;65884;-63
2022/08/31 08:49:09;;;;;;;;;;;;;;;23.84;82.09;96899.42;599679;236;65614;-64
2022/08/31 08:51:38;;;;;;;;;;;;;;;23.86;81.98;96909.88;599637;236;66099;-65
2022/08/31 08:54:11;;;;;;;;;;;;;;;23.85;80.88;96903.72;599819;236;64770;-65
2022/08/31 08:56:46;;;;;;;;;;;;;;;23.85;82.42;96908.30;599835;236;42051;-65
2022/08/31 08:59:11;;;;;;;;;;;;;;;23.84;82.83;96902.11;599588;236;63202;-65
2022/08/31 09:01:45;;;;;;;;;;;;;;;23.83;82.73;96903.20;592898;236;67380;-65
2022/08/31 09:04:11;;;;;;;;;;;;;;;23.83;82.52;96894.36;599702;235;64917;-65
2022/08/31 09:07:03;;;;;;;;;;;;;;;23.83;82.34;96899.73;598628;236;45063;-68
2022/08/31 09:09:33;;;;;;;;;;;;;;;23.82;82.17;96898.94;599026;236;68183;-65
2022/08/31 09:12:23;;;;;;;;;;;;;;;23.82;82.12;96893.58;599819;236;67593;-65
2022/08/31 09:14:52;;;;;;;;;;;;;;;23.82;82.07;96892.78;599392;236;66905;-67
2022/08/31 09:17:33;;;;;;;;;;;;;;;23.81;82.00;96891.96;599807;236;67198;-67
2022/08/31 09:20:02;;;;;;;;;;;;;;;23.82;81.91;96888.20;599727;236;65737;-67
2022/08/31 09:22:33;;;;;;;;;;;;;;;23.82;81.86;96895.47;599711;236;65460;-67
2022/08/31 09:25:02;;;;;;;;;;;;;;;23.82;81.76;96892.78;599817;236;67820;-67
2022/08/31 09:27:45;;;;;;;;;;;;;;;23.82;81.90;96888.20;598754;236;44412;-67
2022/08/31 09:30:16;;;;;;;;;;;;;;;23.83;81.92;96889.00;598598;236;67924;-68
2022/08/31 09:32:43;;;;;;;;;;;;;;;23.83;81.93;96894.36;598806;236;67352;-69
2022/08/31 09:35:25;;;;;;;;;;;;;;;23.82;81.94;96893.58;599287;236;67043;-68
2022/08/31 09:38:00;;;;;;;;;;;;;;;23.82;82.09;96888.20;599772;236;63702;-67
2022/08/31 09:40:36;;;;;;;;;;;;;;;23.82;82.09;96893.58;599606;236;67363;-70
2022/08/31 09:43:05;;;;;;;;;;;;;;;23.82;82.02;96892.78;599815;236;67037;-72
2022/08/31 09:45:36;;;;;;;;;;;;;;;23.82;81.94;96890.09;599688;236;65819;-65
2022/08/31 09:48:05;;;;;;;;;;;;;;;23.82;81.95;96887.41;599714;236;66646;-66
2022/08/31 09:50:37;;;;;;;;;;;;;;;23.82;81.87;96884.73;599746;236;66774;-65
2022/08/31 09:56:12;;;;;;;;;;;;;;;23.82;81.84;96882.05;599664;236;67411;-66
2022/08/31 09:58:35;;;;;;;;;;;;;;;23.81;81.77;96881.22;599502;236;67237;-65
2022/08/31 10:01:12;;;;;;;;;;;;;;;23.82;81.79;96872.11;599784;236;64936;-66
2022/08/31 10:03:46;;;;;;;;;;;;;;;23.82;81.78;96871.31;599682;236;67190;-65
2022/08/31 10:06:25;;;;;;;;;;;;;;;23.82;81.80;96857.90;599756;236;66860;-66
2022/08/31 10:08:57;;;;;;;;;;;;;;;23.81;81.78;96864.33;599806;236;65157;-66
2022/08/31 10:11:26;;;;;;;;;;;;;;;23.82;81.71;96865.95;599761;236;67028;-66
2022/08/31 10:13:57;;;;;;;;;;;;;;;23.82;81.75;96871.31;599710;236;67692;-69
2022/08/31 10:16:31;;;;;;;;;;;;;;;23.83;81.90;96862.16;599801;236;62705;-66
2022/08/31 10:19:09;;;;;;;;;;;;;;;23.82;82.12;96856.00;599685;236;64122;-65
2022/08/31 10:21:53;;;;;;;;;;;;;;;23.83;82.28;96854.11;599734;236;66795;-65
2022/08/31 10:24:27;;;;;;;;;;;;;;;23.83;82.37;96852.22;599772;236;65134;-65
2022/08/31 10:26:55;;;;;;;;;;;;;;;23.83;82.47;96846.06;599654;236;64789;-66
2022/08/31 10:29:30;;;;;;;;;;;;;;;23.83;82.51;96851.42;599821;236;67488;-65
2022/08/31 10:31:59;;;;;;;;;;;;;;;23.83;82.50;96852.22;598307;236;62854;-65
2022/08/31 10:37:18;;;;;;;;;;;;;;;23.84;82.49;96855.69;599845;236;66918;-66
2022/08/31 10:39:47;;;;;;;;;;;;;;;23.83;82.49;96849.53;599356;236;65217;-66
2022/08/31 10:42:15;;;;;;;;;;;;;;;23.84;82.49;96858.38;599581;236;64849;-67
2022/08/31 10:44:56;;;;;;;;;;;;;;;23.84;82.46;96859.17;599725;236;64694;-67
2022/08/31 10:47:26;;;;;;;;;;;;;;;23.83;82.47;96856.80;599775;236;64973;-67
2022/08/31 10:49:58;;;;;;;;;;;;;;;23.83;82.44;96856.80;599777;236;65086;-66
2022/08/31 10:52:28;;;;;;;;;;;;;;;23.84;82.48;96861.06;599765;236;64749;-65
2022/08/31 10:55:05;;;;;;;;;;;;;;;23.83;82.47;96857.59;599838;236;65031;-67
2022/08/31 10:57:30;;;;;;;;;;;;;;;23.84;82.50;96863.74;599634;236;67275;-65
2022/08/31 11:00:40;;;;;;;;;;;;;;;23.84;82.46;96864.53;599443;236;66997;-66
2022/08/31 11:02:43;;;;;;;;;;;;;;;23.84;82.49;96867.22;598626;236;65061;-65
2022/08/31 11:05:16;;;;;;;;;;;;;;;23.84;82.45;96863.74;599697;236;67099;-63
2022/08/31 11:07:54;;;;;;;;;;;;;;;23.85;82.37;96870.72;599752;236;64534;-68
2022/08/31 11:10:26;;;;;;;;;;;;;;;23.84;82.29;96871.80;601424;225;42370;-63
2022/08/31 11:12:58;;;;;;;;;;;;;;;23.84;80.68;96867.22;600193;236;66292;-68
2022/08/31 11:15:28;;;;;;;;;;;;;;;23.87;78.43;96865.84;600692;236;64926;-68
2022/08/31 11:18:09;;;;;;;;;;;;;;;23.87;78.40;96863.98;601138;236;65062;-64
2022/08/31 11:20:41;;;;;;;;;;;;;;;23.88;76.29;96862.88;600489;236;65113;-66
2022/08/31 11:23:25;;;;;;;;;;;;;;;23.87;75.90;96866.66;601123;236;64902;-69
2022/08/31 11:25:57;;;;;;;;;;;;;;;23.88;78.09;96865.56;601120;236;65978;-66
2022/08/31 11:28:30;;;;;;;;;;;;;;;23.88;80.27;96870.13;601073;236;67209;-67
2022/08/31 11:30:55;;;;;;;;;;;;;;;23.87;80.15;96860.47;595162;236;64752;-65
2022/08/31 11:33:26;;;;;;;;;;;;;;;23.86;80.49;96870.41;601169;236;63035;-62
2022/08/31 11:36:08;;;;;;;;;;;;;;;23.86;80.83;96877.67;601033;236;64837;-65
2022/08/31 11:38:48;;;;;;;;;;;;;;;23.86;80.01;96881.15;600480;236;64909;-65
2022/08/31 11:41:34;;;;;;;;;;;;;;;23.87;80.30;96890.81;601109;236;62797;-64
2022/08/31 11:44:03;;;;;;;;;;;;;;;23.87;80.39;96890.81;601035;236;67151;-65
2022/08/31 11:46:36;;;;;;;;;;;;;;;23.86;80.76;96894.56;601094;236;67065;-67
2022/08/31 11:49:04;;;;;;;;;;;;;;;23.86;81.17;96893.77;601115;236;65227;-66
2022/08/31 11:51:33;;;;;;;;;;;;;;;23.86;81.55;96896.46;601095;233;65116;-65
2022/08/31 11:54:02;;;;;;;;;;;;;;;23.86;81.57;96901.83;601101;236;64867;-64
2022/08/31 11:56:34;;;;;;;;;;;;;;;23.85;81.48;96901.03;600171;236;62947;-65
2022/08/31 11:59:16;;;;;;;;;;;;;;;23.86;81.45;96896.46;600863;236;67063;-65
2022/08/31 12:01:43;;;;;;;;;;;;;;;23.85;81.38;96886.83;587303;236;64587;-63
2022/08/31 12:04:40;;;;;;;;;;;;;;;23.85;81.35;96886.83;601098;236;65041;-63
2022/08/31 12:07:02;;;;;;;;;;;;;;;23.85;81.27;96878.77;600784;236;64894;-65
2022/08/31 12:09:35;;;;;;;;;;;;;;;23.86;81.33;96874.99;602354;234;67161;-64
2022/08/31 12:12:05;;;;;;;;;;;;;;;23.85;81.32;96874.20;604418;234;65004;-64
2022/08/31 12:14:34;;;;;;;;;;;;;;;23.85;81.18;96859.98;604332;234;67893;-63
2022/08/31 12:17:11;;;;;;;;;;;;;;;23.85;81.27;96852.73;604316;234;45103;-63
2022/08/31 12:20:01;;;;;;;;;;;;;;;23.86;79.19;96845.47;604445;234;62913;-67
2022/08/31 12:25:51;;;;;;;;;;;;;;;23.87;81.17;96841.69;604437;234;66858;-62
2022/08/31 12:28:23;;;;;;;;;;;;;;;23.86;81.45;96834.73;604374;234;65311;-63
2022/08/31 12:30:55;;;;;;;;;;;;;;;23.85;81.45;96828.58;604311;234;67161;-67
2022/08/31 12:33:24;;;;;;;;;;;;;;;23.84;81.37;96816.23;604424;234;64794;-66
2022/08/31 12:35:55;;;;;;;;;;;;;;;23.85;81.21;96811.69;604384;234;63852;-66
2022/08/31 12:38:25;;;;;;;;;;;;;;;23.85;81.12;96806.31;604381;234;67088;-67
2022/08/31 12:40:53;;;;;;;;;;;;;;;23.84;81.10;96807.39;604328;234;64954;-65
2022/08/31 12:43:25;;;;;;;;;;;;;;;23.85;81.11;96800.95;604489;234;62989;-67
2022/08/31 12:46:03;;;;;;;;;;;;;;;23.85;81.09;96804.42;604508;234;67979;-68
2022/08/31 12:48:44;;;;;;;;;;;;;;;23.85;81.06;96809.00;604742;234;66872;-70
2022/08/31 12:51:20;;;;;;;;;;;;;;;23.85;80.96;96817.84;604260;234;65305;-69
2022/08/31 12:53:52;;;;;;;;;;;;;;;23.86;81.11;96818.63;604355;234;66946;-69
2022/08/31 12:56:21;;;;;;;;;;;;;;;23.86;81.39;96824.80;604513;234;66866;-69
2022/08/31 12:58:50;;;;;;;;;;;;;;;23.86;81.38;96818.63;604471;234;62918;-69
2022/08/31 13:01:22;;;;;;;;;;;;;;;23.86;81.33;96824.80;604358;234;65017;-68
2022/08/31 13:03:51;;;;;;;;;;;;;;;23.87;81.24;96820.22;604539;234;66868;-70
2022/08/31 13:06:32;;;;;;;;;;;;;;;23.86;81.24;96816.74;604511;234;62705;-71
2022/08/31 13:09:00;;;;;;;;;;;;;;;23.86;81.34;96803.33;604362;234;67058;-68
2022/08/31 13:11:37;;;;;;;;;;;;;;;23.87;81.41;96804.11;604499;234;64620;-72
2022/08/31 13:14:11;;;;;;;;;;;;;;;23.88;81.36;96808.41;604773;234;63808;-72
2022/08/31 13:16:40;;;;;;;;;;;;;;;23.87;81.36;96799.56;604543;234;67309;-71
2022/08/31 13:19:09;;;;;;;;;;;;;;;23.87;81.35;96799.56;604554;234;66762;-71
2022/08/31 13:21:37;;;;;;;;;;;;;;;23.87;81.37;96796.88;604243;234;64875;-71
2022/08/31 13:24:06;;;;;;;;;;;;;;;23.88;81.34;96803.05;604438;234;67034;-71
2022/08/31 13:26:35;;;;;;;;;;;;;;;23.88;81.31;96803.05;604432;234;66977;-71
2022/08/31 13:29:06;;;;;;;;;;;;;;;23.88;81.33;96789.63;604451;234;65125;-71